createdAt,value
2023-03-27T00:01:42.996Z,97617.81
2023-03-27T00:04:11.745Z,97620.06
2023-03-27T00:06:48.888Z,97612.94
2023-03-27T00:09:17.545Z,97610.53
2023-03-27T00:11:46.038Z,97605.00
2023-03-27T00:14:16.457Z,97597.03
2023-03-27T00:16:46.452Z,97601.25
2023-03-27T00:19:15.987Z,97602.41
2023-03-27T00:21:45.104Z,97611.84
2023-03-27T00:24:14.099Z,97610.53
2023-03-27T00:26:43.136Z,97616.41
2023-03-27T00:29:13.439Z,97619.34
2023-03-27T00:31:43.334Z,97620.69
2023-03-27T00:34:12.640Z,97621.00
2023-03-27T00:36:41.070Z,97620.88
2023-03-27T00:39:10.380Z,97625.13
2023-03-27T00:41:38.926Z,97620.25
2023-03-27T00:44:25.602Z,97614.44
2023-03-27T00:46:57.504Z,97616.72
2023-03-27T00:49:29.447Z,97621.75
2023-03-27T00:51:59.041Z,97606.66
2023-03-27T00:54:34.900Z,97601.31
2023-03-27T00:57:08.297Z,97614.16
2023-03-27T00:59:41.941Z,97619.88
2023-03-27T01:02:13.822Z,97622.50
2023-03-27T01:04:44.475Z,97615.66
2023-03-27T01:07:14.206Z,97619.09
2023-03-27T01:09:45.914Z,97620.06
2023-03-27T01:12:31.439Z,97616.34
2023-03-27T01:15:30.375Z,97607.44
2023-03-27T01:18:15.739Z,97608.41
2023-03-27T01:21:40.752Z,97602.56
2023-03-27T01:25:02.494Z,97613.31
2023-03-27T01:28:09.512Z,97585.88
2023-03-27T01:30:42.721Z,97606.66
2023-03-27T01:33:57.440Z,97612.66
2023-03-27T01:37:09.320Z,97606.16
2023-03-27T01:39:51.491Z,97606.50
2023-03-27T01:42:25.547Z,97603.75
2023-03-27T01:45:02.552Z,97606.34
2023-03-27T01:47:47.466Z,97601.47
2023-03-27T01:50:24.353Z,97596.59
2023-03-27T01:52:59.726Z,97594.53
2023-03-27T01:55:35.928Z,97601.00
2023-03-27T01:58:09.143Z,97603.25
2023-03-27T02:00:51.432Z,97599.53
2023-03-27T02:03:27.287Z,97594.19
2023-03-27T02:06:01.509Z,97590.31
2023-03-27T02:08:37.721Z,97598.06
2023-03-27T02:11:08.264Z,97594.34
2023-03-27T02:13:41.831Z,97587.53
2023-03-27T02:16:15.923Z,97599.22
2023-03-27T02:18:52.405Z,97583.31
2023-03-27T02:21:21.140Z,97587.53
2023-03-27T02:23:49.577Z,97585.75
2023-03-27T02:26:19.988Z,97581.22
2023-03-27T02:29:08.362Z,97586.88
2023-03-27T02:31:57.825Z,97570.97
2023-03-27T02:34:51.203Z,97572.13
2023-03-27T02:37:32.181Z,97571.63
2023-03-27T02:40:14.173Z,97569.84
2023-03-27T02:42:59.381Z,97570.16
2023-03-27T02:45:40.371Z,97569.19
2023-03-27T02:48:17.491Z,97561.25
2023-03-27T02:50:55.048Z,97563.50
2023-03-27T02:53:27.149Z,97563.50
2023-03-27T02:56:00.142Z,97556.66
2023-03-27T02:58:37.103Z,97575.47
2023-03-27T03:01:10.503Z,97568.31
2023-03-27T03:03:43.758Z,97570.94
2023-03-27T03:06:14.319Z,97573.97
2023-03-27T03:08:43.283Z,97567.50
2023-03-27T03:11:14.521Z,97573.34
2023-03-27T03:13:44.350Z,97569.75
2023-03-27T03:16:13.057Z,97549.19
2023-03-27T03:18:41.475Z,97565.22
2023-03-27T03:21:09.896Z,97563.91
2023-03-27T03:23:39.207Z,97559.53
2023-03-27T03:26:08.861Z,97562.94
2023-03-27T03:28:37.275Z,97554.69
2023-03-27T03:31:10.840Z,97558.88
2023-03-27T03:33:39.323Z,97560.00
2023-03-27T03:36:09.157Z,97569.69
2023-03-27T03:38:37.993Z,97558.53
2023-03-27T03:41:07.724Z,97559.16
2023-03-27T03:43:36.437Z,97556.25
2023-03-27T03:46:06.563Z,97580.00
2023-03-27T03:48:35.141Z,97573.53
2023-03-27T03:51:03.594Z,97567.19
2023-03-27T03:53:32.050Z,97592.50
2023-03-27T03:56:01.103Z,97589.22
2023-03-27T03:58:34.573Z,97579.69
2023-03-27T04:01:03.964Z,97583.06
2023-03-27T04:03:34.092Z,97592.44
2023-03-27T04:06:05.618Z,97591.13
2023-03-27T04:08:35.697Z,97580.78
2023-03-27T04:11:04.510Z,97591.59
2023-03-27T04:13:34.097Z,97596.59
2023-03-27T04:16:02.833Z,97592.25
2023-03-27T04:18:34.970Z,97604.84
2023-03-27T04:21:03.843Z,97602.09
2023-03-27T04:23:33.889Z,97599.34
2023-03-27T04:26:04.047Z,97595.16
2023-03-27T04:28:34.608Z,97599.22
2023-03-27T04:31:06.490Z,97611.03
2023-03-27T04:33:39.822Z,97612.78
2023-03-27T04:36:10.194Z,97617.78
2023-03-27T04:38:39.681Z,97619.22
2023-03-27T04:41:08.492Z,97620.69
2023-03-27T04:43:37.264Z,97614.19
2023-03-27T04:46:07.060Z,97623.25
2023-03-27T04:48:39.052Z,97620.81
2023-03-27T04:51:09.479Z,97618.06
2023-03-27T04:53:38.872Z,97624.38
2023-03-27T04:56:09.653Z,97623.25
2023-03-27T04:58:38.119Z,97635.56
2023-03-27T05:01:06.962Z,97628.97
2023-03-27T05:03:36.824Z,97621.97
2023-03-27T05:06:05.976Z,97630.75
2023-03-27T05:08:34.397Z,97643.03
2023-03-27T05:11:02.837Z,97637.25
2023-03-27T05:13:31.285Z,97647.09
2023-03-27T05:16:01.942Z,97653.09
2023-03-27T05:18:30.838Z,97660.75
2023-03-27T05:21:01.076Z,97651.03
2023-03-27T05:23:29.615Z,97652.69
2023-03-27T05:25:59.905Z,97660.13
2023-03-27T05:28:29.589Z,97660.94
2023-03-27T05:30:58.614Z,97660.94
2023-03-27T05:33:27.457Z,97650.91
2023-03-27T05:35:57.533Z,97661.59
2023-03-27T05:38:28.533Z,97671.00
2023-03-27T05:40:57.153Z,97677.00
2023-03-27T05:43:25.667Z,97675.34
2023-03-27T05:45:54.152Z,97676.78
2023-03-27T05:48:22.577Z,97677.13
2023-03-27T05:50:51.232Z,97685.72
2023-03-27T05:53:19.691Z,97687.03
2023-03-27T05:55:49.864Z,97686.50
2023-03-27T05:58:31.919Z,97688.47
2023-03-27T06:01:00.677Z,97696.50
2023-03-27T06:03:30.775Z,97705.09
2023-03-27T06:06:01.132Z,97709.97
2023-03-27T06:08:30.635Z,97708.84
2023-03-27T06:11:00.402Z,97706.91
2023-03-27T06:13:29.158Z,97717.91
2023-03-27T06:15:57.740Z,97713.84
2023-03-27T06:18:26.484Z,97714.16
2023-03-27T06:20:55.313Z,97717.41
2023-03-27T06:23:24.211Z,97719.34
2023-03-27T06:25:53.193Z,97730.53
2023-03-27T06:28:23.068Z,97735.25
2023-03-27T06:30:51.888Z,97727.97
2023-03-27T06:33:20.392Z,97717.13
2023-03-27T06:35:52.986Z,97724.16
2023-03-27T06:38:23.029Z,97734.22
2023-03-27T06:40:51.787Z,97738.78
2023-03-27T06:43:22.526Z,97730.69
2023-03-27T06:45:53.013Z,97735.09
2023-03-27T06:48:24.036Z,97733.44
2023-03-27T06:50:54.052Z,97740.09
2023-03-27T06:53:27.983Z,97753.03
2023-03-27T06:55:58.431Z,97751.09
2023-03-27T06:58:27.569Z,97755.47
2023-03-27T07:00:57.514Z,97765.53
2023-03-27T07:03:26.432Z,97760.72
2023-03-27T07:05:55.721Z,97759.44
2023-03-27T07:08:25.547Z,97764.00
2023-03-27T07:13:27.255Z,97779.91
2023-03-27T07:15:57.098Z,97771.31
2023-03-27T07:18:25.585Z,97770.19
2023-03-27T07:20:54.230Z,97791.53
2023-03-27T07:23:22.792Z,97785.38
2023-03-27T07:25:52.253Z,97782.75
2023-03-27T07:28:21.038Z,97783.69
2023-03-27T07:30:49.530Z,97792.06
2023-03-27T07:33:19.776Z,97800.47
2023-03-27T07:35:49.754Z,97795.59
2023-03-27T07:38:18.418Z,97806.41
2023-03-27T07:40:47.151Z,97799.59
2023-03-27T07:43:15.784Z,97809.00
2023-03-27T07:45:44.370Z,97809.47
2023-03-27T07:48:16.338Z,97810.47
2023-03-27T07:50:46.421Z,97829.44
2023-03-27T07:53:33.438Z,97825.56
2023-03-27T07:56:03.753Z,97832.50
2023-03-27T07:58:32.328Z,97824.56
2023-03-27T08:01:02.690Z,97816.31
2023-03-27T08:03:32.075Z,97830.84
2023-03-27T08:06:02.289Z,97837.84
2023-03-27T08:08:30.907Z,97822.44
2023-03-27T08:11:00.460Z,97833.75
2023-03-27T08:13:29.990Z,97846.25
2023-03-27T08:16:05.235Z,97843.19
2023-03-27T08:18:33.797Z,97837.25
2023-03-27T08:21:05.673Z,97841.03
2023-03-27T08:23:34.226Z,97840.06
2023-03-27T08:26:03.814Z,97841.06
2023-03-27T08:28:34.051Z,97848.88
2023-03-27T08:31:10.100Z,97841.50
2023-03-27T08:33:39.676Z,97841.59
2023-03-27T08:36:11.588Z,97850.19
2023-03-27T08:38:41.418Z,97858.69
2023-03-27T08:41:28.148Z,97859.56
2023-03-27T08:43:59.297Z,97863.16
2023-03-27T08:46:31.191Z,97853.44
2023-03-27T08:49:07.562Z,97862.88
2023-03-27T08:51:43.235Z,97868.69
2023-03-27T08:54:19.182Z,97859.28
2023-03-27T08:56:49.027Z,97871.13
2023-03-27T08:59:20.784Z,97865.75
2023-03-27T09:01:56.601Z,97882.91
2023-03-27T09:04:37.776Z,97887.44
2023-03-27T09:07:14.847Z,97881.25
2023-03-27T09:09:55.942Z,97895.59
2023-03-27T09:12:50.553Z,97936.56
2023-03-27T09:15:26.332Z,97951.06
2023-03-27T09:18:02.043Z,97978.44
2023-03-27T09:20:35.797Z,97975.81
2023-03-27T09:23:13.672Z,97977.38
2023-03-27T09:25:47.041Z,97998.31
2023-03-27T09:28:22.623Z,97996.13
2023-03-27T09:30:51.225Z,98007.28
2023-03-27T09:33:19.851Z,98010.66
2023-03-27T09:35:48.691Z,98019.28
2023-03-27T09:38:31.231Z,98030.41
2023-03-27T09:41:03.760Z,98072.88
2023-03-27T09:43:44.528Z,98056.44
2023-03-27T09:46:20.144Z,98051.50
2023-03-27T09:48:57.009Z,98070.09
2023-03-27T09:51:41.944Z,98105.66
2023-03-27T09:54:14.369Z,98087.97
2023-03-27T09:56:46.444Z,98126.47
2023-03-27T09:59:27.117Z,98114.03
2023-03-27T10:01:59.082Z,98116.88
2023-03-27T10:04:30.327Z,98136.94
2023-03-27T10:07:02.294Z,98140.53
2023-03-27T10:09:35.222Z,98150.13
2023-03-27T10:12:11.765Z,98143.88
2023-03-27T10:14:43.548Z,98178.69
2023-03-27T10:17:24.448Z,98179.78
2023-03-27T10:19:58.216Z,98172.16
2023-03-27T10:22:32.000Z,98199.81
2023-03-27T10:25:04.979Z,98205.31
2023-03-27T10:27:36.256Z,98200.16
2023-03-27T10:30:30.165Z,98213.84
2023-03-27T10:32:58.706Z,98246.19
2023-03-27T10:35:33.032Z,98234.41
2023-03-27T10:38:05.647Z,98231.41
2023-03-27T10:40:38.905Z,98252.16
2023-03-27T10:43:12.851Z,98271.03
2023-03-27T10:45:48.890Z,98241.75
2023-03-27T10:48:35.993Z,98279.03
2023-03-27T10:51:13.257Z,98291.81
2023-03-27T10:53:52.343Z,98296.50
2023-03-27T10:56:28.224Z,98300.31
2023-03-27T10:59:02.378Z,98318.41
2023-03-27T11:01:35.466Z,98326.91
2023-03-27T11:04:11.508Z,98334.91
2023-03-27T11:06:44.928Z,98354.91
2023-03-27T11:09:21.094Z,98357.94
2023-03-27T11:11:56.801Z,98378.44
2023-03-27T11:14:33.498Z,98390.16
2023-03-27T11:17:08.033Z,98388.22
2023-03-27T11:19:45.081Z,98409.22
2023-03-27T11:22:18.480Z,98407.78
2023-03-27T11:24:56.992Z,98418.41
2023-03-27T11:27:34.340Z,98423.81
2023-03-27T11:30:25.993Z,98433.56
2023-03-27T11:33:13.485Z,98436.81
2023-03-27T11:35:50.200Z,98450.41
2023-03-27T11:38:24.775Z,98458.31
2023-03-27T11:40:53.272Z,98472.53
2023-03-27T11:43:24.737Z,98473.34
2023-03-27T11:46:06.142Z,98481.78
2023-03-27T11:49:02.076Z,98473.88
2023-03-27T11:51:58.953Z,98491.88
2023-03-27T11:54:43.629Z,98492.47
2023-03-27T11:57:22.285Z,98493.09
2023-03-27T12:00:22.037Z,98484.44
2023-03-27T12:03:40.048Z,98503.91
2023-03-27T12:06:21.218Z,98516.03
2023-03-27T12:09:31.224Z,98516.69
2023-03-27T12:12:23.594Z,98512.38
2023-03-27T12:15:03.258Z,98518.97
2023-03-27T12:17:52.678Z,98529.44
2023-03-27T12:20:54.458Z,98528.06
2023-03-27T12:23:41.622Z,98528.94
2023-03-27T12:26:26.096Z,98541.03
2023-03-27T12:29:23.297Z,98532.03
2023-03-27T12:32:18.338Z,98539.44
2023-03-27T12:34:59.068Z,98538.28
2023-03-27T12:37:34.731Z,98539.59
2023-03-27T12:40:15.003Z,98545.06
2023-03-27T12:42:52.291Z,98545.56
2023-03-27T12:45:24.731Z,98552.38
2023-03-27T12:48:20.383Z,98535.09
2023-03-27T12:50:58.487Z,98543.50
2023-03-27T12:53:55.315Z,98543.91
2023-03-27T12:56:36.171Z,98548.44
2023-03-27T12:59:20.670Z,98548.81
2023-03-27T13:02:44.739Z,98568.22
2023-03-27T13:05:41.172Z,98574.66
2023-03-27T13:08:34.257Z,98569.78
2023-03-27T13:11:19.251Z,98568.41
2023-03-27T13:14:24.060Z,98569.91
2023-03-27T13:17:29.280Z,98559.78
2023-03-27T13:20:12.020Z,98551.09
2023-03-27T13:23:09.703Z,98573.41
2023-03-27T13:26:20.406Z,98582.09
2023-03-27T13:28:51.275Z,98556.47
2023-03-27T13:32:01.627Z,98566.84
2023-03-27T13:34:40.374Z,98562.13
2023-03-27T13:37:54.385Z,98575.81
2023-03-27T13:40:28.167Z,98573.81
2023-03-27T13:43:22.971Z,98582.97
2023-03-27T13:45:55.573Z,98592.28
2023-03-27T13:49:07.018Z,98615.38
2023-03-27T13:52:27.689Z,98620.78
2023-03-27T13:55:34.733Z,98638.38
2023-03-27T13:58:32.748Z,98629.41
2023-03-27T14:01:34.263Z,98624.03
2023-03-27T14:05:05.875Z,98619.88
2023-03-27T14:08:36.265Z,98621.19
2023-03-27T14:11:54.895Z,98616.63
2023-03-27T14:15:06.904Z,98635.19
2023-03-27T14:18:36.224Z,98638.81
2023-03-27T14:21:09.360Z,98653.16
2023-03-27T14:23:50.675Z,98648.97
2023-03-27T14:26:24.753Z,98683.34
2023-03-27T14:28:58.967Z,98655.69
2023-03-27T14:31:35.481Z,98677.06
2023-03-27T14:34:14.529Z,98664.41
2023-03-27T14:36:46.046Z,98681.75
2023-03-27T14:39:17.620Z,98681.91
2023-03-27T14:41:50.742Z,98675.69
2023-03-27T14:44:20.336Z,98702.97
2023-03-27T14:46:51.759Z,98695.84
2023-03-27T14:49:24.853Z,98671.91
2023-03-27T14:52:00.303Z,98715.38
2023-03-27T14:54:32.193Z,98698.69
2023-03-27T14:57:09.252Z,98713.59
2023-03-27T14:59:42.933Z,98710.59
2023-03-27T15:02:20.690Z,98704.56
2023-03-27T15:04:50.289Z,98720.00
2023-03-27T15:07:21.208Z,98722.84
2023-03-27T15:10:20.708Z,98742.22
2023-03-27T15:12:49.887Z,98752.47
2023-03-27T15:15:34.799Z,98770.13
2023-03-27T15:18:08.804Z,98777.06
2023-03-27T15:20:38.268Z,98769.38
2023-03-27T15:23:19.138Z,98779.59
2023-03-27T15:25:56.211Z,98772.75
2023-03-27T15:28:32.730Z,98781.28
2023-03-27T15:31:04.316Z,98792.22
2023-03-27T15:33:41.293Z,98789.22
2023-03-27T15:36:26.597Z,98794.19
2023-03-27T15:38:56.698Z,98818.38
2023-03-27T15:41:45.194Z,98821.16
2023-03-27T15:44:19.328Z,98818.41
2023-03-27T15:46:55.887Z,98825.84
2023-03-27T15:49:33.072Z,98836.59
2023-03-27T15:52:22.759Z,98850.63
2023-03-27T15:54:57.160Z,98843.22
2023-03-27T15:57:29.341Z,98849.53
2023-03-27T16:00:04.571Z,98856.13
2023-03-27T16:02:33.522Z,98856.66
2023-03-27T16:05:02.445Z,98856.34
2023-03-27T16:07:43.925Z,98858.81
2023-03-27T16:10:15.466Z,98863.47
2023-03-27T16:12:53.196Z,98871.94
2023-03-27T16:15:36.342Z,98863.44
2023-03-27T16:18:18.008Z,98872.22
2023-03-27T16:20:47.361Z,98884.56
2023-03-27T16:23:15.882Z,98868.06
2023-03-27T16:25:48.295Z,98890.28
2023-03-27T16:28:18.151Z,98897.66
2023-03-27T16:30:48.046Z,98892.19
2023-03-27T16:33:19.001Z,98905.06
2023-03-27T16:35:48.119Z,98914.41
2023-03-27T16:38:17.413Z,98908.63
2023-03-27T16:40:48.053Z,98928.63
2023-03-27T16:43:17.133Z,98936.56
2023-03-27T16:45:46.887Z,98935.47
2023-03-27T16:48:15.916Z,98942.53
2023-03-27T16:50:44.499Z,98948.81
2023-03-27T16:53:15.024Z,98950.97
2023-03-27T16:55:45.298Z,98940.00
2023-03-27T16:58:19.848Z,98950.94
2023-03-27T17:00:50.282Z,98943.53
2023-03-27T17:03:20.591Z,98967.03
2023-03-27T17:05:50.546Z,98971.66
2023-03-27T17:08:19.409Z,98967.81
2023-03-27T17:10:48.668Z,98976.81
2023-03-27T17:13:19.539Z,98983.91
2023-03-27T17:15:51.749Z,98992.66
2023-03-27T17:18:20.847Z,98990.72
2023-03-27T17:20:50.428Z,98997.78
2023-03-27T17:23:19.125Z,99006.53
2023-03-27T17:25:48.633Z,99012.53
2023-03-27T17:28:19.461Z,99006.16
2023-03-27T17:31:01.092Z,99015.72
2023-03-27T17:33:34.571Z,99028.28
2023-03-27T17:36:09.734Z,99028.00
2023-03-27T17:38:39.991Z,99030.97
2023-03-27T17:41:10.616Z,99041.63
2023-03-27T17:43:43.525Z,99048.75
2023-03-27T17:46:14.004Z,99053.13
2023-03-27T17:48:43.913Z,99064.91
2023-03-27T17:51:14.164Z,99055.59
2023-03-27T17:53:44.173Z,99076.69
2023-03-27T17:56:13.772Z,99075.59
2023-03-27T17:58:50.196Z,99082.16
2023-03-27T18:01:23.302Z,99090.81
2023-03-27T18:03:55.733Z,99094.56
2023-03-27T18:06:26.403Z,99104.06
2023-03-27T18:08:59.709Z,99093.31
2023-03-27T18:11:30.199Z,99103.63
2023-03-27T18:14:03.107Z,99118.56
2023-03-27T18:16:33.387Z,99099.88
2023-03-27T18:19:03.763Z,99115.66
2023-03-27T18:21:33.894Z,99114.75
2023-03-27T18:24:05.529Z,99105.34
2023-03-27T18:26:36.365Z,99113.97
2023-03-27T18:29:07.370Z,99121.28
2023-03-27T18:31:37.642Z,99124.75
2023-03-27T18:34:09.227Z,99124.69
2023-03-27T18:36:39.106Z,99132.81
2023-03-27T18:39:08.855Z,99128.09
2023-03-27T18:41:40.102Z,99128.84
2023-03-27T18:44:13.173Z,99135.06
2023-03-27T18:46:44.829Z,99133.06
2023-03-27T18:49:24.251Z,99154.63
2023-03-27T18:51:56.060Z,99146.91
2023-03-27T18:54:28.343Z,99151.22
2023-03-27T18:56:59.012Z,99152.53
2023-03-27T18:59:31.755Z,99155.53
2023-03-27T19:02:02.536Z,99159.59
2023-03-27T19:04:35.479Z,99161.72
2023-03-27T19:07:08.312Z,99161.38
2023-03-27T19:09:41.657Z,99161.88
2023-03-27T19:12:12.838Z,99169.47
2023-03-27T19:14:44.517Z,99159.06
2023-03-27T19:17:15.401Z,99163.94
2023-03-27T19:19:46.476Z,99165.03
2023-03-27T19:22:17.480Z,99171.53
2023-03-27T19:24:47.869Z,99172.06
2023-03-27T19:27:23.629Z,99164.09
2023-03-27T19:29:57.038Z,99167.06
2023-03-27T19:32:28.468Z,99170.88
2023-03-27T19:34:58.881Z,99167.34
2023-03-27T19:37:33.230Z,99171.97
2023-03-27T19:40:04.535Z,99178.47
2023-03-27T19:42:34.741Z,99178.75
2023-03-27T19:45:06.567Z,99182.53
2023-03-27T19:47:36.576Z,99186.09
2023-03-27T19:50:09.297Z,99183.63
2023-03-27T19:52:40.504Z,99181.94
2023-03-27T19:55:11.045Z,99176.75
2023-03-27T19:57:41.277Z,99193.13
2023-03-27T20:00:17.423Z,99177.00
2023-03-27T20:02:50.176Z,99197.16
2023-03-27T20:05:22.740Z,99184.56
2023-03-27T20:07:52.793Z,99194.91
2023-03-27T20:10:22.930Z,99186.16
2023-03-27T20:12:53.399Z,99186.66
2023-03-27T20:15:25.234Z,99191.28
2023-03-27T20:17:56.587Z,99190.91
2023-03-27T20:20:26.407Z,99194.75
2023-03-27T20:22:57.848Z,99193.31
2023-03-27T20:25:30.552Z,99191.66
2023-03-27T20:28:00.162Z,99182.88
2023-03-27T20:30:37.025Z,99192.34
2023-03-27T20:33:07.273Z,99195.91
2023-03-27T20:35:38.117Z,99203.28
2023-03-27T20:38:07.085Z,99188.78
2023-03-27T20:43:17.074Z,99201.84
2023-03-27T20:45:47.210Z,99195.34
2023-03-27T20:48:18.163Z,99212.53
2023-03-27T20:50:51.319Z,99202.69
2023-03-27T20:53:26.352Z,99204.34
2023-03-27T20:56:00.096Z,99203.78
2023-03-27T20:58:29.857Z,99205.66
2023-03-27T21:01:03.783Z,99207.56
2023-03-27T21:03:34.977Z,99209.22
2023-03-27T21:06:07.306Z,99216.81
2023-03-27T21:08:36.149Z,99204.00
2023-03-27T21:11:05.953Z,99218.72
2023-03-27T21:13:34.481Z,99217.63
2023-03-27T21:16:04.779Z,99217.06
2023-03-27T21:18:33.357Z,99225.00
2023-03-27T21:21:01.838Z,99227.97
2023-03-27T21:23:30.277Z,99226.06
2023-03-27T21:25:59.149Z,99225.25
2023-03-27T21:28:27.860Z,99227.13
2023-03-27T21:30:56.330Z,99218.38
2023-03-27T21:33:26.282Z,99229.28
2023-03-27T21:35:54.808Z,99233.69
2023-03-27T21:38:23.774Z,99222.19
2023-03-27T21:40:52.254Z,99215.88
2023-03-27T21:43:21.406Z,99220.50
2023-03-27T21:45:50.804Z,99221.56
2023-03-27T21:48:19.615Z,99233.31
2023-03-27T21:50:49.476Z,99228.13
2023-03-27T21:53:17.979Z,99233.81
2023-03-27T21:55:47.851Z,99235.13
2023-03-27T21:58:16.301Z,99232.41
2023-03-27T22:00:46.398Z,99229.09
2023-03-27T22:03:15.347Z,99234.78
2023-03-27T22:05:49.200Z,99245.94
2023-03-27T22:08:25.088Z,99234.44
2023-03-27T22:10:59.748Z,99241.19
2023-03-27T22:13:28.558Z,99250.69
2023-03-27T22:15:57.987Z,99248.22
2023-03-27T22:18:26.694Z,99243.22
2023-03-27T22:20:55.316Z,99244.53
2023-03-27T22:23:25.117Z,99263.25
2023-03-27T22:25:55.496Z,99253.91
2023-03-27T22:28:25.607Z,99257.13
2023-03-27T22:30:54.092Z,99261.38
2023-03-27T22:33:22.584Z,99262.69
2023-03-27T22:35:51.697Z,99264.81
2023-03-27T22:38:20.162Z,99275.13
2023-03-27T22:40:49.981Z,99270.16
2023-03-27T22:43:22.821Z,99280.25
2023-03-27T22:45:52.559Z,99276.09
2023-03-27T22:48:21.388Z,99272.53
2023-03-27T22:50:55.573Z,99277.97
2023-03-27T22:53:25.463Z,99286.41
2023-03-27T22:55:58.360Z,99278.69
2023-03-27T22:58:27.665Z,99277.03
2023-03-27T23:00:56.911Z,99293.38
2023-03-27T23:03:27.664Z,99281.66
2023-03-27T23:05:56.496Z,99285.19
2023-03-27T23:08:28.450Z,99301.81
2023-03-27T23:11:01.206Z,99302.63
2023-03-27T23:13:32.256Z,99287.13
2023-03-27T23:16:01.251Z,99295.28
2023-03-27T23:18:30.063Z,99295.88
2023-03-27T23:21:00.692Z,99299.44
2023-03-27T23:23:31.760Z,99301.09
2023-03-27T23:26:02.974Z,99304.06
2023-03-27T23:28:35.131Z,99295.88
2023-03-27T23:31:07.036Z,99305.72
2023-03-27T23:33:38.378Z,99310.34
2023-03-27T23:36:10.167Z,99306.53
2023-03-27T23:38:39.148Z,99312.84
2023-03-27T23:41:11.270Z,99312.00
2023-03-27T23:43:39.904Z,99311.16
2023-03-27T23:46:10.735Z,99307.63
2023-03-27T23:48:40.717Z,99292.06
2023-03-27T23:51:10.727Z,99304.06
2023-03-27T23:53:39.729Z,99309.50
2023-03-27T23:56:11.238Z,99307.00
2023-03-27T23:58:39.798Z,99301.56
